| time (UTC) | temp C | wind direction | speed KPH | gust KPH | rain 1hr cm | rain 24hr cm | rain mn cm | humidity % | barometer mb |
| 20260506183044 | 12 | 148 | 8.0 | 16.1 | 0.10 | 0.10 | 0.10 | 88 | 1010.0 |
| 20260506181542 | 13 | 204 | 4.8 | 9.7 | 0.05 | 0.05 | 0.05 | 88 | 1010.1 |
| 20260506180043 | 13 | 213 | 3.2 | 6.4 | 0.03 | 0.03 | 0.03 | 87 | 1010.4 |
| 20260506174538 | 13 | 277 | 3.2 | 12.9 | 0.00 | 0.00 | 0.00 | 87 | 1010.9 |
| 20260506173044 | 14 | 195 | 1.6 | 12.9 | 0.00 | 0.00 | 0.00 | 85 | 1010.9 |
| 20260506171540 | 15 | 162 | 3.2 | 20.9 | 0.00 | 0.00 | 0.00 | 84 | 1011.1 |
| 20260506170034 | 15 | 257 | 4.8 | 22.5 | 0.00 | 0.00 | 0.00 | 85 | 1011.2 |
| 20260506164543 | 15 | 278 | 6.4 | 20.9 | 0.00 | 0.00 | 0.00 | 84 | 1011.4 |
| 20260506163033 | 15 | 297 | 8.0 | 27.4 | 0.00 | 0.00 | 0.00 | 84 | 1011.4 |
| 20260506161533 | 15 | 204 | 4.8 | 17.7 | 0.00 | 0.00 | 0.00 | 83 | 1011.5 |
| 20260506160029 | 15 | 212 | 1.6 | 20.9 | 0.00 | 0.00 | 0.00 | 83 | 1011.9 |
| 20260506154527 | 16 | 222 | 9.7 | 27.4 | 0.00 | 0.00 | 0.00 | 81 | 1012.0 |
| 20260506153026 | 16 | 234 | 8.0 | 17.7 | 0.00 | 0.00 | 0.00 | 81 | 1011.9 |
| 20260506151525 | 16 | 232 | 3.2 | 14.5 | 0.00 | 0.00 | 0.00 | 81 | 1012.2 |
| 20260506150023 | 17 | 164 | 3.2 | 12.9 | 0.00 | 0.00 | 0.00 | 79 | 1012.2 |
| 20260506144525 | 17 | 296 | 1.6 | 19.3 | 0.00 | 0.00 | 0.00 | 80 | 1012.2 |
| 20260506143031 | 16 | 291 | 6.4 | 17.7 | 0.00 | 0.00 | 0.00 | 80 | 1012.4 |
| 20260506141520 | 16 | 212 | 4.8 | 14.5 | 0.00 | 0.00 | 0.00 | 80 | 1012.7 |
| 20260506140019 | 16 | 257 | 8.0 | 24.1 | 0.00 | 0.00 | 0.00 | 82 | 1012.5 |
| 20260506134519 | 16 | 225 | 3.2 | 8.0 | 0.00 | 0.00 | 0.00 | 82 | 1012.4 |
| 20260506133017 | 16 | 210 | 4.8 | 12.9 | 0.00 | 0.00 | 0.00 | 81 | 1012.2 |
| 20260506131518 | 16 | 207 | 4.8 | 11.3 | 0.00 | 0.00 | 0.00 | 82 | 1012.1 |
| 20260506130016 | 16 | 243 | 6.4 | 19.3 | 0.00 | 0.00 | 0.00 | 81 | 1012.5 |
| 20260506124512 | 16 | 203 | 4.8 | 14.5 | 0.00 | 0.00 | 0.00 | 83 | 1012.6 |
| 20260506123010 | 15 | 282 | 6.4 | 12.9 | 0.00 | 0.00 | 0.00 | 84 | 1012.8 |
| 20260506121508 | 15 | 254 | 4.8 | 12.9 | 0.00 | 0.00 | 0.00 | 85 | 1012.7 |
| 20260506120006 | 15 | 203 | 6.4 | 11.3 | 0.00 | 0.00 | 0.00 | 85 | 1012.8 |
| 20260506114505 | 15 | 215 | 3.2 | 11.3 | 0.00 | 0.00 | 0.00 | 86 | 1012.9 |
| 20260506113008 | 14 | 296 | 1.6 | 12.9 | 0.00 | 0.00 | 0.00 | 87 | 1012.7 |
| 20260506111504 | 14 | 284 | 1.6 | 8.0 | 0.00 | 0.00 | 0.00 | 87 | 1012.7 |
| 20260506110003 | 13 | 245 | 1.6 | 16.1 | 0.00 | 0.00 | 0.00 | 88 | 1012.8 |
| 20260506104501 | -17 | 0.0 | 0.0 | 0.00 | 0.00 | 0.00 | 1012.8 | ||
| 20260506103057 | -17 | 0.0 | 0.0 | 0.00 | 0.00 | 0.00 | 1012.8 | ||
| 20260506101553 | -17 | 0.0 | 0.0 | 0.00 | 0.00 | 0.00 | 1012.7 | ||
| 20260506100048 | -17 | 0.0 | 0.0 | 0.00 | 0.00 | 0.00 | 1012.6 | ||
| 20260506094547 | -17 | 0.0 | 0.0 | 0.00 | 0.00 | 0.00 | 1012.4 | ||
| 20260506093046 | -17 | 0.0 | 0.0 | 0.00 | 0.00 | 0.00 | 1012.6 | ||
| 20260506091535 | 13 | 272 | 3.2 | 12.9 | 0.00 | 0.00 | 0.00 | 87 | 1012.6 |
| 20260506090033 | 13 | 212 | 1.6 | 9.7 | 0.00 | 0.00 | 0.00 | 87 | 1012.9 |
| 20260506084533 | 13 | 210 | 4.8 | 14.5 | 0.00 | 0.00 | 0.00 | 87 | 1012.9 |
| 20260506083034 | 13 | 156 | 4.8 | 17.7 | 0.00 | 0.00 | 0.00 | 87 | 1012.9 |
| 20260506081529 | 13 | 228 | 1.6 | 8.0 | 0.00 | 0.00 | 0.00 | 87 | 1012.9 |
| 20260506073025 | 13 | 205 | 4.8 | 16.1 | 0.00 | 0.00 | 0.00 | 86 | 1013.1 |
| 20260506071525 | 14 | 207 | 8.0 | 17.7 | 0.00 | 0.00 | 0.00 | 86 | 1013.0 |
| 20260506061524 | 14 | 274 | 3.2 | 11.3 | 0.00 | 0.00 | 0.00 | 85 | 1013.0 |
| 20260506044503 | 14 | 291 | 4.8 | 17.7 | 0.00 | 0.00 | 0.00 | 83 | 1013.6 |
| 20260506043006 | 14 | 239 | 4.8 | 11.3 | 0.00 | 0.00 | 0.00 | 83 | 1013.6 |
| 20260506041502 | 14 | 34 | 6.4 | 16.1 | 0.00 | 0.00 | 0.00 | 83 | 1013.6 |
| 20260506040100 | 14 | 253 | 4.8 | 22.5 | 0.00 | 0.00 | 0.00 | 83 | 1013.5 |
| 20260506034558 | 14 | 169 | 6.4 | 16.1 | 0.00 | 0.00 | 0.00 | 83 | 1013.3 |
| 20260506033056 | 14 | 221 | 9.7 | 24.1 | 0.00 | 0.00 | 0.00 | 83 | 1013.4 |
| 20260506031602 | 14 | 228 | 6.4 | 17.7 | 0.00 | 0.00 | 0.00 | 82 | 1013.3 |
| 20260506030112 | 14 | 250 | 3.2 | 14.5 | 0.00 | 0.00 | 0.00 | 81 | 1013.3 |
| 20260506024555 | 15 | 260 | 6.4 | 19.3 | 0.00 | 0.00 | 0.00 | 80 | 1013.3 |
| 20260506023053 | 15 | 293 | 4.8 | 17.7 | 0.00 | 0.00 | 0.00 | 80 | 1013.1 |
| 20260506021553 | 15 | 218 | 6.4 | 14.5 | 0.00 | 0.00 | 0.00 | 80 | 1013.0 |
| 20260506020053 | 15 | 242 | 4.8 | 12.9 | 0.00 | 0.00 | 0.00 | 79 | 1013.0 |
| 20260506014559 | 15 | 259 | 4.8 | 17.7 | 0.00 | 0.00 | 0.00 | 79 | 1012.8 |
| 20260506013052 | 15 | 243 | 4.8 | 17.7 | 0.00 | 0.00 | 0.00 | 79 | 1012.7 |
| 20260506011557 | 15 | 300 | 6.4 | 16.1 | 0.00 | 0.00 | 0.00 | 79 | 1012.6 |
| 20260506010055 | 15 | 304 | 1.6 | 14.5 | 0.00 | 0.00 | 0.00 | 79 | 1012.5 |
| 20260506004623 | 15 | 291 | 4.8 | 16.1 | 0.00 | 0.00 | 0.00 | 78 | 1012.3 |
| 20260506003051 | 15 | 333 | 4.8 | 20.9 | 0.00 | 0.00 | 0.00 | 77 | 1012.0 |
| 20260506001550 | 15 | 302 | 3.2 | 20.9 | 0.00 | 0.00 | 0.00 | 77 | 1011.4 |
| 20260506000050 | 15 | 224 | 8.0 | 17.7 | 0.00 | 0.00 | 0.00 | 78 | 1011.2 |
| 20260505234610 | 15 | 290 | 4.8 | 9.7 | 0.00 | 0.00 | 0.00 | 78 | 1011.0 |
| 20260505233048 | 15 | 232 | 4.8 | 14.5 | 0.00 | 0.00 | 0.00 | 77 | 1010.8 |
| 20260505231550 | 16 | 219 | 8.0 | 20.9 | 0.00 | 0.00 | 0.00 | 75 | 1010.8 |
| 20260505230051 | 16 | 195 | 4.8 | 14.5 | 0.00 | 0.00 | 0.00 | 75 | 1011.2 |
| 20260505224548 | 16 | 262 | 4.8 | 22.5 | 0.00 | 0.00 | 0.00 | 74 | 1011.1 |
| 20260505223059 | 16 | 150 | 3.2 | 16.1 | 0.00 | 0.00 | 0.00 | 75 | 1010.9 |
| 20260505221558 | 16 | 276 | 9.7 | 19.3 | 0.00 | 0.00 | 0.00 | 73 | 1010.8 |
| 20260505220100 | 17 | 250 | 6.4 | 16.1 | 0.00 | 0.00 | 0.00 | 72 | 1010.6 |
| 20260505214603 | 17 | 187 | 6.4 | 14.5 | 0.00 | 0.00 | 0.00 | 72 | 1010.5 |
| 20260505213048 | 17 | 183 | 3.2 | 16.1 | 0.00 | 0.00 | 0.00 | 71 | 1010.7 |
| 20260505211547 | 17 | 262 | 6.4 | 19.3 | 0.00 | 0.00 | 0.00 | 71 | 1010.6 |
| 20260505210046 | 18 | 204 | 9.7 | 20.9 | 0.00 | 0.00 | 0.00 | 68 | 1010.5 |
| 20260505204544 | 18 | 228 | 4.8 | 17.7 | 0.00 | 0.00 | 0.00 | 68 | 1010.4 |
| 20260505203044 | 18 | 246 | 6.4 | 16.1 | 0.00 | 0.00 | 0.00 | 68 | 1010.4 |
| 20260505201542 | 18 | 266 | 4.8 | 12.9 | 0.00 | 0.00 | 0.00 | 70 | 1010.5 |
| 20260505200045 | 18 | 202 | 8.0 | 17.7 | 0.00 | 0.00 | 0.00 | 70 | 1010.7 |
| 20260505194538 | 17 | 215 | 6.4 | 16.1 | 0.00 | 0.00 | 0.00 | 72 | 1010.9 |
| 20260505193035 | 18 | 259 | 8.0 | 16.1 | 0.00 | 0.00 | 0.00 | 71 | 1011.2 |
| 20260505191534 | 18 | 323 | 4.8 | 14.5 | 0.00 | 0.00 | 0.00 | 72 | 1011.2 |
| 20260505190037 | 18 | 283 | 6.4 | 14.5 | 0.00 | 0.00 | 0.00 | 72 | 1011.4 |
| 20260505184531 | 18 | 238 | 8.0 | 19.3 | 0.00 | 0.00 | 0.00 | 72 | 1011.4 |